• Join FlightAware (Why Join?)
  • Login
  • US Flag 
04:54PM EDT


 

Airport Tracker/Info


-or-


 

Live Flight TrackerFlight Track Log ✈ USC105 ✈ 10-Jun-2013 ✈ KBKL - KYIP

Flight Track Log - Related Links

Times and Time Zones

All times are in EDT time to prevent confusion due to time zone crossing. See the USC105 flight status page for this flight to view local times or setup timezone preferences in your user account.

Time Position Orientation Groundspeed Altitude Reporting Facility
EDT Latitude Longitude Course Direction KTS MPH feet Rate Location/Type
11:15PM 41.5336 -81.6761 347° North 134 154 1,300  Level Cleveland Center
11:16PM 41.5606 -81.6958 331° Northwest 116 133 2,700 1,020 Climbing Cleveland Center
11:17PM 41.5808 -81.7461 298° West 135 155 3,500 600 Climbing Cleveland Center
11:19PM 41.6011 -81.7994 297° West 142 163 4,200 540 Climbing Cleveland Center
11:20PM 41.6214 -81.8497 298° West 144 166 4,800 480 Climbing Cleveland Center
11:21PM 41.6417 -81.9003 298° West 145 167 5,300 480 Climbing Cleveland Center
11:22PM 41.6600 -81.9478 297° West 142 163 5,800 480 Climbing Cleveland Center
11:23PM 41.6761 -82.0008 292° West 146 168 6,400 540 Climbing Cleveland Center
11:24PM 41.6942 -82.0431 300° West 146 168 6,900 420 Climbing Cleveland Center
11:25PM 41.7081 -82.0961 289° West 152 175 7,300 420 Climbing Cleveland Center
11:26PM 41.7261 -82.1522 293° West 158 182 7,800 300 Climbing Cleveland Center
11:27PM 41.7442 -82.2139 291° West 163 188 8,000 60 Climbing Cleveland Center
11:28PM 41.7703 -82.2703 302° West 181 208 8,000  Level Cleveland Center
11:29PM 41.7883 -82.3208 296° West 180 207 8,000  Level Cleveland Center
11:30PM 41.8144 -82.3828 300° West 169 194 8,000  Level Cleveland Center
11:31PM 41.8344 -82.4392 295° West 166 191 8,000  Level Cleveland Center
11:32PM 41.8544 -82.4928 297° West 165 190 8,000  Level Cleveland Center
11:33PM 41.8742 -82.5492 295° West 165 190 8,000  Level Cleveland Center
11:34PM 41.8942 -82.6083 294° West 167 192 8,000  Level Cleveland Center
11:35PM 41.9139 -82.6619 296° West 166 191 8,000 -240 Level Cleveland Center
11:36PM 41.9358 -82.7269 294° West 174 200 7,600 -420 Descending Cleveland Center
11:37PM 41.9575 -82.7892 295° West 180 207 7,200 -480 Descending Cleveland Center
11:38PM 41.9939 -82.8461 311° West 185 213 6,600 -600 Descending Cleveland Center
11:39PM 42.0261 -82.9006 309° West 182 209 6,000 -300 Descending Cleveland Center
11:40PM 42.0564 -82.9519 308° West 173 199 6,000 -120 Level Cleveland Center
11:41PM 42.0889 -82.9978 314° West 167 192 5,800 -240 Descending Cleveland Center
11:42PM 42.1150 -83.0464 306° West 176 203 5,600 -420 Descending Cleveland Center
11:43PM 42.1450 -83.0981 308° West 177 204 5,100 -300 Descending Cleveland Center
11:44PM 42.1753 -83.1469 310° West 172 198 5,000 -60 Descending Cleveland Center
11:45PM 42.2053 -83.1986 308° West 158 182 5,000  Level Cleveland Center
11:46PM 42.2336 -83.2417 312° West 153 176 5,000  Level Cleveland Center
11:47PM 42.2594 -83.2878 307° West 149 171 5,000 -300 Level Cleveland Center
11:48PM 42.2919 -83.3256 319° Northwest 167 192 4,400 -540 Descending Cleveland Center
11:49PM 42.3308 -83.3525 333° Northwest 148 170 4,000 -480 Descending Cleveland Center
11:50PM 42.3636 -83.3822 326° Northwest 132 152 3,500 -840 Descending Cleveland Center
11:51PM 42.3522 -83.4153 245° Southwest 185 213 2,500 -600 Descending Cleveland Center
11:52PM 42.3039 -83.4414 202° Southwest 151 174 2,300 -420 Descending Cleveland Center
11:53PM 42.2778 -83.4794 227° Southwest 143 165 1,700 -660 Descending Cleveland Center
11:54PM 42.2561 -83.5119 228° Southwest 129 148 1,100 -660 Descending Cleveland Center
11:56PM 42.2333 -83.5167 236° Southwest  Level FlightAware Approximate
12:03AM 42.2393 -83.5310 236° Southwest  Level Estimated
12:04AM 42.2393 -83.5310 236° Southwest  Level Estimated